Custer, Michigan
Current Conditions -  °F | °C
As of 12:54 AM on Thursday 23 Oct 2014 (Local Time) from KLDM Reporting Station
Haze Haze  
Wind Chill: -2°   Ceiling: Unl
Heat Index: -2°   Visibility: 5mi
Dew Point: -2°   Wind: 0mph
Humidity: 98%   Direction: NA
Pressure: 30.29"   Gusts: NA
Location:  43.95°N, 86.22°W
Report Text: KLDM 230454Z AUTO 00000KT 5SM BR CLR M01/M02 A3029 RMK AO2 T10151018
Loading
Personal Weather Stations






























Interactive Weather Map
Tropical Storm Tracking
New forecast layout! Learn more

10-Day Weather Forecast

Advertisements
Track Severe Weather on mobile